sensor_id;sensor_type;location;lat;lon;timestamp;P1;durP1;ratioP1;P2;durP2;ratioP2
14686;SDS011;7431;49.440;11.084;2023-04-03T00:01:37;2.20;;;2.00;;
14686;SDS011;7431;49.440;11.084;2023-04-03T00:04:04;3.00;;;1.97;;
14686;SDS011;7431;49.440;11.084;2023-04-03T00:06:30;2.50;;;2.30;;
14686;SDS011;7431;49.440;11.084;2023-04-03T00:08:57;3.13;;;2.00;;
14686;SDS011;7431;49.440;11.084;2023-04-03T00:11:23;3.20;;;2.40;;
14686;SDS011;7431;49.440;11.084;2023-04-03T00:13:50;2.20;;;2.00;;
14686;SDS011;7431;49.440;11.084;2023-04-03T00:16:16;3.07;;;2.37;;
14686;SDS011;7431;49.440;11.084;2023-04-03T00:18:42;3.87;;;2.27;;
14686;SDS011;7431;49.440;11.084;2023-04-03T00:21:09;2.40;;;2.13;;
14686;SDS011;7431;49.440;11.084;2023-04-03T00:23:35;4.27;;;2.27;;
14686;SDS011;7431;49.440;11.084;2023-04-03T00:26:01;2.13;;;1.70;;
14686;SDS011;7431;49.440;11.084;2023-04-03T00:28:27;2.93;;;2.07;;
14686;SDS011;7431;49.440;11.084;2023-04-03T00:30:53;2.30;;;2.10;;
14686;SDS011;7431;49.440;11.084;2023-04-03T00:33:19;3.00;;;2.10;;
14686;SDS011;7431;49.440;11.084;2023-04-03T00:35:46;2.10;;;1.93;;
14686;SDS011;7431;49.440;11.084;2023-04-03T00:38:13;2.03;;;1.77;;
14686;SDS011;7431;49.440;11.084;2023-04-03T00:40:41;2.37;;;2.17;;
14686;SDS011;7431;49.440;11.084;2023-04-03T00:43:12;2.30;;;2.10;;
14686;SDS011;7431;49.440;11.084;2023-04-03T00:45:39;3.23;;;2.23;;
14686;SDS011;7431;49.440;11.084;2023-04-03T00:48:07;2.73;;;2.40;;
14686;SDS011;7431;49.440;11.084;2023-04-03T00:50:37;2.67;;;2.27;;
14686;SDS011;7431;49.440;11.084;2023-04-03T00:53:04;2.60;;;2.30;;
14686;SDS011;7431;49.440;11.084;2023-04-03T00:55:32;3.37;;;2.23;;
14686;SDS011;7431;49.440;11.084;2023-04-03T00:57:59;2.43;;;1.97;;
14686;SDS011;7431;49.440;11.084;2023-04-03T01:00:25;4.13;;;2.30;;
14686;SDS011;7431;49.440;11.084;2023-04-03T01:02:52;2.57;;;2.37;;
14686;SDS011;7431;49.440;11.084;2023-04-03T01:05:18;2.23;;;2.00;;
14686;SDS011;7431;49.440;11.084;2023-04-03T01:07:45;3.43;;;2.10;;
14686;SDS011;7431;49.440;11.084;2023-04-03T01:10:12;2.37;;;2.03;;
14686;SDS011;7431;49.440;11.084;2023-04-03T01:12:39;2.17;;;1.97;;
14686;SDS011;7431;49.440;11.084;2023-04-03T01:15:10;2.47;;;1.97;;
14686;SDS011;7431;49.440;11.084;2023-04-03T01:17:46;2.10;;;1.90;;
14686;SDS011;7431;49.440;11.084;2023-04-03T01:22:45;2.57;;;2.10;;
14686;SDS011;7431;49.440;11.084;2023-04-03T01:25:15;2.40;;;2.20;;
14686;SDS011;7431;49.440;11.084;2023-04-03T01:27:41;2.13;;;1.93;;
14686;SDS011;7431;49.440;11.084;2023-04-03T01:30:07;2.40;;;2.20;;
14686;SDS011;7431;49.440;11.084;2023-04-03T01:32:33;3.20;;;2.23;;
14686;SDS011;7431;49.440;11.084;2023-04-03T01:34:59;2.20;;;1.97;;
14686;SDS011;7431;49.440;11.084;2023-04-03T01:37:26;2.60;;;2.07;;
14686;SDS011;7431;49.440;11.084;2023-04-03T01:39:52;3.10;;;2.00;;
14686;SDS011;7431;49.440;11.084;2023-04-03T01:42:18;2.17;;;2.00;;
14686;SDS011;7431;49.440;11.084;2023-04-03T01:44:44;2.63;;;2.10;;
14686;SDS011;7431;49.440;11.084;2023-04-03T01:47:11;2.03;;;1.93;;
14686;SDS011;7431;49.440;11.084;2023-04-03T01:49:37;2.47;;;1.90;;
14686;SDS011;7431;49.440;11.084;2023-04-03T01:52:03;3.40;;;2.00;;
14686;SDS011;7431;49.440;11.084;2023-04-03T01:54:29;2.20;;;2.00;;
14686;SDS011;7431;49.440;11.084;2023-04-03T01:56:55;2.47;;;2.07;;
14686;SDS011;7431;49.440;11.084;2023-04-03T01:59:21;2.53;;;2.10;;
14686;SDS011;7431;49.440;11.084;2023-04-03T02:01:46;2.07;;;1.70;;
14686;SDS011;7431;49.440;11.084;2023-04-03T02:04:12;2.07;;;1.90;;
14686;SDS011;7431;49.440;11.084;2023-04-03T02:06:38;1.80;;;1.70;;
14686;SDS011;7431;49.440;11.084;2023-04-03T02:09:04;2.00;;;1.80;;
14686;SDS011;7431;49.440;11.084;2023-04-03T02:11:31;1.93;;;1.80;;
14686;SDS011;7431;49.440;11.084;2023-04-03T02:13:57;2.60;;;1.90;;
14686;SDS011;7431;49.440;11.084;2023-04-03T02:16:22;2.43;;;2.00;;
14686;SDS011;7431;49.440;11.084;2023-04-03T02:18:49;2.07;;;1.87;;
14686;SDS011;7431;49.440;11.084;2023-04-03T02:21:15;2.20;;;2.00;;
14686;SDS011;7431;49.440;11.084;2023-04-03T02:23:41;2.10;;;1.90;;
14686;SDS011;7431;49.440;11.084;2023-04-03T02:26:08;4.33;;;2.27;;
14686;SDS011;7431;49.440;11.084;2023-04-03T02:28:34;1.70;;;1.50;;
14686;SDS011;7431;49.440;11.084;2023-04-03T02:31:01;2.83;;;1.80;;
14686;SDS011;7431;49.440;11.084;2023-04-03T02:33:27;2.23;;;2.03;;
14686;SDS011;7431;49.440;11.084;2023-04-03T02:35:53;2.10;;;1.80;;
14686;SDS011;7431;49.440;11.084;2023-04-03T02:38:20;2.50;;;1.80;;
14686;SDS011;7431;49.440;11.084;2023-04-03T02:40:46;2.50;;;2.20;;
14686;SDS011;7431;49.440;11.084;2023-04-03T02:43:12;2.50;;;2.10;;
14686;SDS011;7431;49.440;11.084;2023-04-03T02:45:38;2.20;;;2.00;;
14686;SDS011;7431;49.440;11.084;2023-04-03T02:48:04;2.60;;;1.87;;
14686;SDS011;7431;49.440;11.084;2023-04-03T02:50:30;2.30;;;2.10;;
14686;SDS011;7431;49.440;11.084;2023-04-03T02:52:56;2.57;;;2.10;;
14686;SDS011;7431;49.440;11.084;2023-04-03T02:55:22;2.13;;;2.03;;
14686;SDS011;7431;49.440;11.084;2023-04-03T02:57:48;2.57;;;2.20;;
14686;SDS011;7431;49.440;11.084;2023-04-03T03:00:14;2.90;;;2.37;;
14686;SDS011;7431;49.440;11.084;2023-04-03T03:02:40;2.37;;;2.00;;
14686;SDS011;7431;49.440;11.084;2023-04-03T03:05:07;2.67;;;2.10;;
14686;SDS011;7431;49.440;11.084;2023-04-03T03:07:33;3.27;;;2.30;;
14686;SDS011;7431;49.440;11.084;2023-04-03T03:09:59;4.03;;;2.60;;
14686;SDS011;7431;49.440;11.084;2023-04-03T03:12:25;4.43;;;2.57;;
14686;SDS011;7431;49.440;11.084;2023-04-03T03:14:51;4.17;;;2.60;;
14686;SDS011;7431;49.440;11.084;2023-04-03T03:17:17;4.87;;;2.80;;
14686;SDS011;7431;49.440;11.084;2023-04-03T03:19:43;3.30;;;2.70;;
14686;SDS011;7431;49.440;11.084;2023-04-03T03:22:10;3.30;;;2.10;;
14686;SDS011;7431;49.440;11.084;2023-04-03T03:24:36;4.83;;;2.50;;
14686;SDS011;7431;49.440;11.084;2023-04-03T03:27:02;3.70;;;2.40;;
14686;SDS011;7431;49.440;11.084;2023-04-03T03:29:28;3.47;;;2.60;;
14686;SDS011;7431;49.440;11.084;2023-04-03T03:31:54;3.47;;;2.27;;
14686;SDS011;7431;49.440;11.084;2023-04-03T03:34:20;3.67;;;2.70;;
14686;SDS011;7431;49.440;11.084;2023-04-03T03:36:46;2.70;;;2.33;;
14686;SDS011;7431;49.440;11.084;2023-04-03T03:39:12;3.73;;;2.80;;
14686;SDS011;7431;49.440;11.084;2023-04-03T03:41:38;3.43;;;2.60;;
14686;SDS011;7431;49.440;11.084;2023-04-03T03:44:04;3.87;;;3.40;;
14686;SDS011;7431;49.440;11.084;2023-04-03T03:46:30;4.47;;;2.90;;
14686;SDS011;7431;49.440;11.084;2023-04-03T03:48:56;4.40;;;2.80;;
14686;SDS011;7431;49.440;11.084;2023-04-03T03:51:22;3.00;;;2.70;;
14686;SDS011;7431;49.440;11.084;2023-04-03T03:53:48;2.30;;;2.10;;
14686;SDS011;7431;49.440;11.084;2023-04-03T03:56:15;4.33;;;2.93;;
14686;SDS011;7431;49.440;11.084;2023-04-03T03:58:40;4.07;;;2.73;;
14686;SDS011;7431;49.440;11.084;2023-04-03T04:01:06;4.60;;;3.03;;
14686;SDS011;7431;49.440;11.084;2023-04-03T04:03:33;3.50;;;3.03;;
14686;SDS011;7431;49.440;11.084;2023-04-03T04:05:59;3.30;;;2.47;;
14686;SDS011;7431;49.440;11.084;2023-04-03T04:08:25;3.27;;;2.57;;
14686;SDS011;7431;49.440;11.084;2023-04-03T04:10:51;3.90;;;3.10;;
14686;SDS011;7431;49.440;11.084;2023-04-03T04:13:17;4.53;;;2.93;;
14686;SDS011;7431;49.440;11.084;2023-04-03T04:15:43;4.27;;;3.30;;
14686;SDS011;7431;49.440;11.084;2023-04-03T04:18:09;5.13;;;3.03;;
14686;SDS011;7431;49.440;11.084;2023-04-03T04:20:35;3.50;;;3.10;;
14686;SDS011;7431;49.440;11.084;2023-04-03T04:23:01;3.90;;;3.27;;
14686;SDS011;7431;49.440;11.084;2023-04-03T04:25:27;4.47;;;3.60;;
14686;SDS011;7431;49.440;11.084;2023-04-03T04:27:53;5.03;;;2.70;;
14686;SDS011;7431;49.440;11.084;2023-04-03T04:30:19;6.13;;;3.00;;
14686;SDS011;7431;49.440;11.084;2023-04-03T04:32:45;5.43;;;3.20;;
14686;SDS011;7431;49.440;11.084;2023-04-03T04:35:11;3.97;;;3.20;;
14686;SDS011;7431;49.440;11.084;2023-04-03T04:37:37;3.30;;;3.00;;
14686;SDS011;7431;49.440;11.084;2023-04-03T04:40:03;4.63;;;3.57;;
14686;SDS011;7431;49.440;11.084;2023-04-03T04:42:29;5.27;;;3.60;;
14686;SDS011;7431;49.440;11.084;2023-04-03T04:44:55;5.27;;;3.10;;
14686;SDS011;7431;49.440;11.084;2023-04-03T04:47:21;6.53;;;3.50;;
14686;SDS011;7431;49.440;11.084;2023-04-03T04:49:47;4.23;;;3.37;;
14686;SDS011;7431;49.440;11.084;2023-04-03T04:52:15;4.87;;;3.30;;
14686;SDS011;7431;49.440;11.084;2023-04-03T04:54:41;5.13;;;3.43;;
14686;SDS011;7431;49.440;11.084;2023-04-03T04:57:07;4.70;;;3.13;;
14686;SDS011;7431;49.440;11.084;2023-04-03T04:59:33;4.13;;;3.13;;
14686;SDS011;7431;49.440;11.084;2023-04-03T05:01:59;5.17;;;3.30;;
14686;SDS011;7431;49.440;11.084;2023-04-03T05:04:25;4.83;;;3.33;;
14686;SDS011;7431;49.440;11.084;2023-04-03T05:06:54;3.80;;;2.90;;
14686;SDS011;7431;49.440;11.084;2023-04-03T05:09:20;3.63;;;2.80;;
14686;SDS011;7431;49.440;11.084;2023-04-03T05:11:46;4.73;;;3.03;;
14686;SDS011;7431;49.440;11.084;2023-04-03T05:14:12;6.07;;;3.70;;
14686;SDS011;7431;49.440;11.084;2023-04-03T05:16:38;6.00;;;3.53;;
14686;SDS011;7431;49.440;11.084;2023-04-03T05:19:04;5.50;;;3.30;;
14686;SDS011;7431;49.440;11.084;2023-04-03T05:21:30;6.53;;;3.60;;
14686;SDS011;7431;49.440;11.084;2023-04-03T05:24:00;4.90;;;3.60;;
14686;SDS011;7431;49.440;11.084;2023-04-03T05:26:27;4.90;;;3.60;;
14686;SDS011;7431;49.440;11.084;2023-04-03T05:28:53;5.67;;;3.17;;
14686;SDS011;7431;49.440;11.084;2023-04-03T05:31:19;5.33;;;3.17;;
14686;SDS011;7431;49.440;11.084;2023-04-03T05:33:45;5.97;;;3.40;;
14686;SDS011;7431;49.440;11.084;2023-04-03T05:36:12;3.53;;;3.23;;
14686;SDS011;7431;49.440;11.084;2023-04-03T05:38:38;5.60;;;3.77;;
14686;SDS011;7431;49.440;11.084;2023-04-03T05:41:04;5.97;;;3.90;;
14686;SDS011;7431;49.440;11.084;2023-04-03T05:43:30;3.37;;;3.07;;
14686;SDS011;7431;49.440;11.084;2023-04-03T05:45:57;5.00;;;3.67;;
14686;SDS011;7431;49.440;11.084;2023-04-03T05:48:23;3.10;;;2.80;;
14686;SDS011;7431;49.440;11.084;2023-04-03T05:50:50;4.70;;;3.13;;
14686;SDS011;7431;49.440;11.084;2023-04-03T05:53:18;3.50;;;3.10;;
14686;SDS011;7431;49.440;11.084;2023-04-03T05:55:45;6.37;;;3.23;;
14686;SDS011;7431;49.440;11.084;2023-04-03T05:58:11;4.93;;;3.30;;
14686;SDS011;7431;49.440;11.084;2023-04-03T06:00:37;5.83;;;3.00;;
14686;SDS011;7431;49.440;11.084;2023-04-03T06:03:03;4.90;;;3.23;;
14686;SDS011;7431;49.440;11.084;2023-04-03T06:05:29;5.17;;;3.33;;
14686;SDS011;7431;49.440;11.084;2023-04-03T06:07:55;6.17;;;2.90;;
14686;SDS011;7431;49.440;11.084;2023-04-03T06:10:22;4.80;;;3.13;;
14686;SDS011;7431;49.440;11.084;2023-04-03T06:12:48;7.37;;;3.37;;
14686;SDS011;7431;49.440;11.084;2023-04-03T06:15:15;3.23;;;2.90;;
14686;SDS011;7431;49.440;11.084;2023-04-03T06:17:42;4.77;;;2.93;;
14686;SDS011;7431;49.440;11.084;2023-04-03T06:20:08;3.97;;;2.80;;
14686;SDS011;7431;49.440;11.084;2023-04-03T06:22:34;3.93;;;3.10;;
14686;SDS011;7431;49.440;11.084;2023-04-03T06:25:01;5.33;;;3.10;;
14686;SDS011;7431;49.440;11.084;2023-04-03T06:27:27;3.83;;;2.80;;
14686;SDS011;7431;49.440;11.084;2023-04-03T06:29:53;6.13;;;3.00;;
14686;SDS011;7431;49.440;11.084;2023-04-03T06:32:19;6.07;;;3.20;;
14686;SDS011;7431;49.440;11.084;2023-04-03T06:34:45;6.33;;;2.50;;
14686;SDS011;7431;49.440;11.084;2023-04-03T06:37:18;3.83;;;2.80;;
14686;SDS011;7431;49.440;11.084;2023-04-03T06:39:45;4.50;;;2.80;;
14686;SDS011;7431;49.440;11.084;2023-04-03T06:42:11;6.03;;;2.60;;
14686;SDS011;7431;49.440;11.084;2023-04-03T06:44:37;3.90;;;2.60;;
14686;SDS011;7431;49.440;11.084;2023-04-03T06:47:04;4.10;;;2.40;;
14686;SDS011;7431;49.440;11.084;2023-04-03T06:49:30;4.57;;;2.90;;
14686;SDS011;7431;49.440;11.084;2023-04-03T06:51:56;5.53;;;2.70;;
14686;SDS011;7431;49.440;11.084;2023-04-03T06:54:23;4.20;;;2.90;;
14686;SDS011;7431;49.440;11.084;2023-04-03T06:56:49;2.87;;;2.20;;
14686;SDS011;7431;49.440;11.084;2023-04-03T06:59:15;4.87;;;2.40;;
14686;SDS011;7431;49.440;11.084;2023-04-03T07:01:42;3.43;;;2.83;;
14686;SDS011;7431;49.440;11.084;2023-04-03T07:04:08;6.20;;;2.57;;
14686;SDS011;7431;49.440;11.084;2023-04-03T07:06:34;4.00;;;2.57;;
14686;SDS011;7431;49.440;11.084;2023-04-03T07:09:01;4.00;;;2.90;;
14686;SDS011;7431;49.440;11.084;2023-04-03T07:11:27;3.83;;;2.63;;
14686;SDS011;7431;49.440;11.084;2023-04-03T07:13:53;5.47;;;2.73;;
14686;SDS011;7431;49.440;11.084;2023-04-03T07:16:20;5.57;;;2.57;;
14686;SDS011;7431;49.440;11.084;2023-04-03T07:18:46;4.83;;;2.67;;
14686;SDS011;7431;49.440;11.084;2023-04-03T07:21:12;5.33;;;2.63;;
14686;SDS011;7431;49.440;11.084;2023-04-03T07:23:38;5.53;;;2.80;;
14686;SDS011;7431;49.440;11.084;2023-04-03T07:26:05;5.07;;;2.97;;
14686;SDS011;7431;49.440;11.084;2023-04-03T07:28:32;3.60;;;2.97;;
14686;SDS011;7431;49.440;11.084;2023-04-03T07:31:00;6.53;;;2.70;;
14686;SDS011;7431;49.440;11.084;2023-04-03T07:33:26;4.00;;;2.60;;
14686;SDS011;7431;49.440;11.084;2023-04-03T07:35:52;3.93;;;2.77;;
14686;SDS011;7431;49.440;11.084;2023-04-03T07:38:18;5.37;;;2.50;;
14686;SDS011;7431;49.440;11.084;2023-04-03T07:40:48;4.20;;;2.47;;
14686;SDS011;7431;49.440;11.084;2023-04-03T07:43:14;5.77;;;3.13;;
14686;SDS011;7431;49.440;11.084;2023-04-03T07:45:41;3.73;;;2.23;;
14686;SDS011;7431;49.440;11.084;2023-04-03T07:48:08;5.07;;;3.20;;
14686;SDS011;7431;49.440;11.084;2023-04-03T07:50:34;4.30;;;3.00;;
14686;SDS011;7431;49.440;11.084;2023-04-03T07:53:02;3.80;;;3.00;;
14686;SDS011;7431;49.440;11.084;2023-04-03T07:55:28;4.53;;;2.73;;
14686;SDS011;7431;49.440;11.084;2023-04-03T07:57:54;5.47;;;2.93;;
14686;SDS011;7431;49.440;11.084;2023-04-03T08:00:21;3.50;;;2.73;;
14686;SDS011;7431;49.440;11.084;2023-04-03T08:02:47;4.40;;;3.00;;
14686;SDS011;7431;49.440;11.084;2023-04-03T08:05:19;7.27;;;2.60;;
14686;SDS011;7431;49.440;11.084;2023-04-03T08:07:46;4.00;;;2.70;;
14686;SDS011;7431;49.440;11.084;2023-04-03T08:10:12;6.43;;;2.57;;
14686;SDS011;7431;49.440;11.084;2023-04-03T08:12:39;3.03;;;2.33;;
14686;SDS011;7431;49.440;11.084;2023-04-03T08:15:05;4.27;;;2.80;;
14686;SDS011;7431;49.440;11.084;2023-04-03T08:17:32;7.80;;;2.70;;
14686;SDS011;7431;49.440;11.084;2023-04-03T08:19:58;5.67;;;3.00;;
14686;SDS011;7431;49.440;11.084;2023-04-03T08:22:24;5.37;;;2.60;;
14686;SDS011;7431;49.440;11.084;2023-04-03T08:24:50;4.30;;;2.70;;
14686;SDS011;7431;49.440;11.084;2023-04-03T08:27:16;3.50;;;2.67;;
14686;SDS011;7431;49.440;11.084;2023-04-03T08:29:42;4.70;;;3.30;;
14686;SDS011;7431;49.440;11.084;2023-04-03T08:32:08;3.30;;;2.43;;
14686;SDS011;7431;49.440;11.084;2023-04-03T08:34:34;4.87;;;1.97;;
14686;SDS011;7431;49.440;11.084;2023-04-03T08:37:01;2.37;;;1.67;;
14686;SDS011;7431;49.440;11.084;2023-04-03T08:39:27;3.27;;;2.10;;
14686;SDS011;7431;49.440;11.084;2023-04-03T08:41:55;3.53;;;2.50;;
14686;SDS011;7431;49.440;11.084;2023-04-03T08:44:39;3.03;;;2.50;;
14686;SDS011;7431;49.440;11.084;2023-04-03T08:52:17;2.47;;;2.10;;
14686;SDS011;7431;49.440;11.084;2023-04-03T08:57:35;3.07;;;2.10;;
14686;SDS011;7431;49.440;11.084;2023-04-03T09:00:07;5.13;;;2.40;;
14686;SDS011;7431;49.440;11.084;2023-04-03T09:02:34;2.30;;;1.80;;
14686;SDS011;7431;49.440;11.084;2023-04-03T09:05:08;5.20;;;2.17;;
14686;SDS011;7431;49.440;11.084;2023-04-03T09:07:39;2.50;;;2.03;;
14686;SDS011;7431;49.440;11.084;2023-04-03T09:10:08;2.30;;;1.80;;
14686;SDS011;7431;49.440;11.084;2023-04-03T09:12:46;5.57;;;2.40;;
14686;SDS011;7431;49.440;11.084;2023-04-03T09:15:17;3.73;;;2.50;;
14686;SDS011;7431;49.440;11.084;2023-04-03T09:22:41;4.03;;;2.70;;
14686;SDS011;7431;49.440;11.084;2023-04-03T09:25:16;3.53;;;2.00;;
14686;SDS011;7431;49.440;11.084;2023-04-03T09:27:43;4.90;;;2.50;;
14686;SDS011;7431;49.440;11.084;2023-04-03T09:30:13;4.07;;;2.10;;
14686;SDS011;7431;49.440;11.084;2023-04-03T09:32:40;3.83;;;2.10;;
14686;SDS011;7431;49.440;11.084;2023-04-03T09:35:24;5.73;;;2.10;;
14686;SDS011;7431;49.440;11.084;2023-04-03T09:37:54;3.27;;;2.00;;
14686;SDS011;7431;49.440;11.084;2023-04-03T09:42:57;3.83;;;2.40;;
14686;SDS011;7431;49.440;11.084;2023-04-03T09:45:25;5.13;;;2.30;;
14686;SDS011;7431;49.440;11.084;2023-04-03T09:48:37;2.90;;;1.80;;
14686;SDS011;7431;49.440;11.084;2023-04-03T09:50:52;3.03;;;2.00;;
14686;SDS011;7431;49.440;11.084;2023-04-03T09:55:52;2.83;;;1.93;;
14686;SDS011;7431;49.440;11.084;2023-04-03T09:58:29;4.30;;;2.27;;
14686;SDS011;7431;49.440;11.084;2023-04-03T10:00:59;2.97;;;2.27;;
14686;SDS011;7431;49.440;11.084;2023-04-03T10:03:35;3.47;;;2.23;;
14686;SDS011;7431;49.440;11.084;2023-04-03T10:06:04;3.27;;;1.80;;
14686;SDS011;7431;49.440;11.084;2023-04-03T10:08:53;1.67;;;1.47;;
14686;SDS011;7431;49.440;11.084;2023-04-03T10:11:23;2.27;;;1.70;;
14686;SDS011;7431;49.440;11.084;2023-04-03T10:13:57;4.43;;;1.97;;
14686;SDS011;7431;49.440;11.084;2023-04-03T10:16:29;2.50;;;2.00;;
14686;SDS011;7431;49.440;11.084;2023-04-03T10:19:20;2.70;;;1.77;;
14686;SDS011;7431;49.440;11.084;2023-04-03T10:27:05;2.53;;;1.73;;
14686;SDS011;7431;49.440;11.084;2023-04-03T10:29:38;2.80;;;2.10;;
14686;SDS011;7431;49.440;11.084;2023-04-03T10:34:44;3.30;;;2.70;;
14686;SDS011;7431;49.440;11.084;2023-04-03T10:39:51;3.53;;;2.43;;
14686;SDS011;7431;49.440;11.084;2023-04-03T10:50:00;2.90;;;1.90;;
14686;SDS011;7431;49.440;11.084;2023-04-03T10:55:02;4.27;;;2.77;;
14686;SDS011;7431;49.440;11.084;2023-04-03T10:57:30;4.50;;;2.03;;
14686;SDS011;7431;49.440;11.084;2023-04-03T10:59:58;3.30;;;1.97;;
14686;SDS011;7431;49.440;11.084;2023-04-03T11:02:27;2.90;;;2.00;;
14686;SDS011;7431;49.440;11.084;2023-04-03T11:04:56;3.17;;;2.07;;
14686;SDS011;7431;49.440;11.084;2023-04-03T11:07:25;3.73;;;2.80;;
14686;SDS011;7431;49.440;11.084;2023-04-03T11:09:54;2.87;;;2.20;;
14686;SDS011;7431;49.440;11.084;2023-04-03T11:12:24;3.67;;;2.10;;
14686;SDS011;7431;49.440;11.084;2023-04-03T11:14:51;5.17;;;2.33;;
14686;SDS011;7431;49.440;11.084;2023-04-03T11:22:21;3.67;;;2.87;;
14686;SDS011;7431;49.440;11.084;2023-04-03T11:24:51;6.77;;;3.67;;
14686;SDS011;7431;49.440;11.084;2023-04-03T11:27:20;4.03;;;1.80;;
14686;SDS011;7431;49.440;11.084;2023-04-03T11:29:48;2.83;;;1.73;;
14686;SDS011;7431;49.440;11.084;2023-04-03T11:32:39;2.80;;;1.90;;
14686;SDS011;7431;49.440;11.084;2023-04-03T11:35:09;3.20;;;2.90;;
14686;SDS011;7431;49.440;11.084;2023-04-03T11:37:43;4.00;;;2.37;;
14686;SDS011;7431;49.440;11.084;2023-04-03T11:40:31;2.23;;;2.03;;
14686;SDS011;7431;49.440;11.084;2023-04-03T11:47:54;2.13;;;1.80;;
14686;SDS011;7431;49.440;11.084;2023-04-03T11:53:09;5.13;;;2.50;;
14686;SDS011;7431;49.440;11.084;2023-04-03T12:00:59;4.17;;;2.93;;
14686;SDS011;7431;49.440;11.084;2023-04-03T12:16:05;1.70;;;1.60;;
14686;SDS011;7431;49.440;11.084;2023-04-03T12:26:41;3.63;;;1.77;;
14686;SDS011;7431;49.440;11.084;2023-04-03T12:29:20;4.60;;;2.00;;
14686;SDS011;7431;49.440;11.084;2023-04-03T12:31:55;2.27;;;1.53;;
14686;SDS011;7431;49.440;11.084;2023-04-03T12:34:43;2.03;;;1.83;;
14686;SDS011;7431;49.440;11.084;2023-04-03T12:39:55;2.00;;;1.80;;
14686;SDS011;7431;49.440;11.084;2023-04-03T12:42:42;2.13;;;1.70;;
14686;SDS011;7431;49.440;11.084;2023-04-03T12:45:20;1.90;;;1.70;;
14686;SDS011;7431;49.440;11.084;2023-04-03T12:47:48;1.97;;;1.47;;
14686;SDS011;7431;49.440;11.084;2023-04-03T12:50:18;3.87;;;1.73;;
14686;SDS011;7431;49.440;11.084;2023-04-03T12:52:47;3.33;;;2.30;;
14686;SDS011;7431;49.440;11.084;2023-04-03T12:55:16;4.20;;;1.80;;
14686;SDS011;7431;49.440;11.084;2023-04-03T12:57:42;2.50;;;1.97;;
14686;SDS011;7431;49.440;11.084;2023-04-03T13:00:22;3.10;;;1.80;;
14686;SDS011;7431;49.440;11.084;2023-04-03T13:02:48;2.60;;;1.60;;
14686;SDS011;7431;49.440;11.084;2023-04-03T13:05:16;2.83;;;1.90;;
14686;SDS011;7431;49.440;11.084;2023-04-03T13:07:42;4.53;;;2.97;;
14686;SDS011;7431;49.440;11.084;2023-04-03T13:12:35;1.77;;;1.53;;
14686;SDS011;7431;49.440;11.084;2023-04-03T13:15:10;3.77;;;2.63;;
14686;SDS011;7431;49.440;11.084;2023-04-03T13:17:41;2.33;;;2.10;;
14686;SDS011;7431;49.440;11.084;2023-04-03T13:20:11;2.60;;;2.00;;
14686;SDS011;7431;49.440;11.084;2023-04-03T13:22:39;2.63;;;2.43;;
14686;SDS011;7431;49.440;11.084;2023-04-03T13:25:09;2.37;;;1.73;;
14686;SDS011;7431;49.440;11.084;2023-04-03T13:27:36;3.47;;;2.57;;
14686;SDS011;7431;49.440;11.084;2023-04-03T13:30:04;3.33;;;1.73;;
14686;SDS011;7431;49.440;11.084;2023-04-03T13:32:31;2.63;;;1.80;;
14686;SDS011;7431;49.440;11.084;2023-04-03T13:34:58;2.83;;;1.93;;
14686;SDS011;7431;49.440;11.084;2023-04-03T13:37:25;2.47;;;1.80;;
14686;SDS011;7431;49.440;11.084;2023-04-03T13:42:28;2.70;;;2.00;;
14686;SDS011;7431;49.440;11.084;2023-04-03T13:47:54;3.80;;;2.10;;
14686;SDS011;7431;49.440;11.084;2023-04-03T13:50:32;3.87;;;1.80;;
14686;SDS011;7431;49.440;11.084;2023-04-03T13:53:02;2.27;;;2.10;;
14686;SDS011;7431;49.440;11.084;2023-04-03T13:55:33;3.37;;;2.20;;
14686;SDS011;7431;49.440;11.084;2023-04-03T13:58:00;2.17;;;1.60;;
14686;SDS011;7431;49.440;11.084;2023-04-03T14:00:32;4.40;;;2.83;;
14686;SDS011;7431;49.440;11.084;2023-04-03T14:02:59;3.87;;;2.10;;
14686;SDS011;7431;49.440;11.084;2023-04-03T14:05:25;3.97;;;2.77;;
14686;SDS011;7431;49.440;11.084;2023-04-03T14:07:52;4.10;;;2.87;;
14686;SDS011;7431;49.440;11.084;2023-04-03T14:10:21;4.70;;;2.23;;
14686;SDS011;7431;49.440;11.084;2023-04-03T14:12:48;3.10;;;2.23;;
14686;SDS011;7431;49.440;11.084;2023-04-03T14:15:23;1.47;;;1.37;;
14686;SDS011;7431;49.440;11.084;2023-04-03T14:17:49;2.17;;;1.70;;
14686;SDS011;7431;49.440;11.084;2023-04-03T14:20:18;2.50;;;1.43;;
14686;SDS011;7431;49.440;11.084;2023-04-03T14:22:44;1.40;;;1.30;;
14686;SDS011;7431;49.440;11.084;2023-04-03T14:25:11;3.23;;;1.80;;
14686;SDS011;7431;49.440;11.084;2023-04-03T14:27:41;5.00;;;2.00;;
14686;SDS011;7431;49.440;11.084;2023-04-03T14:30:09;2.23;;;2.03;;
14686;SDS011;7431;49.440;11.084;2023-04-03T14:32:38;2.37;;;1.83;;
14686;SDS011;7431;49.440;11.084;2023-04-03T14:35:04;3.00;;;1.80;;
14686;SDS011;7431;49.440;11.084;2023-04-03T14:37:30;3.17;;;2.23;;
14686;SDS011;7431;49.440;11.084;2023-04-03T14:39:57;3.23;;;2.07;;
14686;SDS011;7431;49.440;11.084;2023-04-03T14:42:28;2.00;;;1.80;;
14686;SDS011;7431;49.440;11.084;2023-04-03T14:44:54;3.73;;;2.50;;
14686;SDS011;7431;49.440;11.084;2023-04-03T14:47:21;2.40;;;2.20;;
14686;SDS011;7431;49.440;11.084;2023-04-03T14:49:48;3.67;;;2.20;;
14686;SDS011;7431;49.440;11.084;2023-04-03T14:52:18;1.37;;;1.27;;
14686;SDS011;7431;49.440;11.084;2023-04-03T14:54:45;3.53;;;2.00;;
14686;SDS011;7431;49.440;11.084;2023-04-03T14:57:12;2.87;;;2.57;;
14686;SDS011;7431;49.440;11.084;2023-04-03T14:59:39;2.47;;;1.97;;
14686;SDS011;7431;49.440;11.084;2023-04-03T15:02:25;1.93;;;1.67;;
14686;SDS011;7431;49.440;11.084;2023-04-03T15:04:51;2.77;;;2.10;;
14686;SDS011;7431;49.440;11.084;2023-04-03T15:07:17;3.67;;;2.30;;
14686;SDS011;7431;49.440;11.084;2023-04-03T15:09:43;2.83;;;1.90;;
14686;SDS011;7431;49.440;11.084;2023-04-03T15:12:09;2.00;;;1.77;;
14686;SDS011;7431;49.440;11.084;2023-04-03T15:14:35;2.83;;;1.77;;
14686;SDS011;7431;49.440;11.084;2023-04-03T15:17:02;3.40;;;2.07;;
14686;SDS011;7431;49.440;11.084;2023-04-03T15:19:28;1.87;;;1.47;;
14686;SDS011;7431;49.440;11.084;2023-04-03T15:21:54;3.53;;;1.70;;
14686;SDS011;7431;49.440;11.084;2023-04-03T15:24:20;2.63;;;1.77;;
14686;SDS011;7431;49.440;11.084;2023-04-03T15:26:46;1.70;;;1.60;;
14686;SDS011;7431;49.440;11.084;2023-04-03T15:29:12;2.70;;;2.10;;
14686;SDS011;7431;49.440;11.084;2023-04-03T15:31:38;2.80;;;2.40;;
14686;SDS011;7431;49.440;11.084;2023-04-03T15:34:04;4.77;;;1.80;;
14686;SDS011;7431;49.440;11.084;2023-04-03T15:36:30;2.30;;;2.00;;
14686;SDS011;7431;49.440;11.084;2023-04-03T15:38:56;4.37;;;2.63;;
14686;SDS011;7431;49.440;11.084;2023-04-03T15:41:22;4.77;;;3.10;;
14686;SDS011;7431;49.440;11.084;2023-04-03T15:43:48;2.27;;;2.00;;
14686;SDS011;7431;49.440;11.084;2023-04-03T15:46:14;3.30;;;2.20;;
14686;SDS011;7431;49.440;11.084;2023-04-03T15:48:40;4.13;;;1.77;;
14686;SDS011;7431;49.440;11.084;2023-04-03T15:51:06;2.60;;;2.30;;
14686;SDS011;7431;49.440;11.084;2023-04-03T15:53:32;3.47;;;2.57;;
14686;SDS011;7431;49.440;11.084;2023-04-03T15:55:58;2.73;;;2.27;;
14686;SDS011;7431;49.440;11.084;2023-04-03T15:58:24;2.33;;;2.00;;
14686;SDS011;7431;49.440;11.084;2023-04-03T16:00:50;4.43;;;2.67;;
14686;SDS011;7431;49.440;11.084;2023-04-03T16:03:17;3.73;;;2.63;;
14686;SDS011;7431;49.440;11.084;2023-04-03T16:05:43;3.13;;;2.30;;
14686;SDS011;7431;49.440;11.084;2023-04-03T16:08:10;2.07;;;1.53;;
14686;SDS011;7431;49.440;11.084;2023-04-03T16:10:36;2.30;;;1.70;;
14686;SDS011;7431;49.440;11.084;2023-04-03T16:13:03;2.23;;;1.60;;
14686;SDS011;7431;49.440;11.084;2023-04-03T16:15:29;3.00;;;2.10;;
14686;SDS011;7431;49.440;11.084;2023-04-03T16:17:55;2.43;;;1.80;;
14686;SDS011;7431;49.440;11.084;2023-04-03T16:20:21;2.47;;;2.00;;
14686;SDS011;7431;49.440;11.084;2023-04-03T16:22:48;3.07;;;1.67;;